sensor_id;sensor_type;location;lat;lon;timestamp;P1;durP1;ratioP1;P2;durP2;ratioP2
33108;SDS011;19481;51.118;6.940;2023-04-25T00:00:36;6.57;;;2.45;;
33108;SDS011;19481;51.118;6.940;2023-04-25T00:05:39;4.28;;;2.10;;
33108;SDS011;19481;51.118;6.940;2023-04-25T00:10:41;5.97;;;2.28;;
33108;SDS011;19481;51.118;6.940;2023-04-25T00:15:43;8.48;;;2.35;;
33108;SDS011;19481;51.118;6.940;2023-04-25T00:20:49;4.07;;;2.08;;
33108;SDS011;19481;51.118;6.940;2023-04-25T00:25:51;5.63;;;1.75;;
33108;SDS011;19481;51.118;6.940;2023-04-25T00:30:52;3.90;;;2.33;;
33108;SDS011;19481;51.118;6.940;2023-04-25T00:35:55;7.22;;;2.38;;
33108;SDS011;19481;51.118;6.940;2023-04-25T00:40:57;6.40;;;2.42;;
33108;SDS011;19481;51.118;6.940;2023-04-25T00:45:59;6.55;;;2.63;;
33108;SDS011;19481;51.118;6.940;2023-04-25T00:51:02;9.38;;;3.22;;
33108;SDS011;19481;51.118;6.940;2023-04-25T00:56:04;4.05;;;2.00;;
33108;SDS011;19481;51.118;6.940;2023-04-25T01:01:06;3.47;;;2.70;;
33108;SDS011;19481;51.118;6.940;2023-04-25T01:06:10;7.28;;;2.80;;
33108;SDS011;19481;51.118;6.940;2023-04-25T01:11:12;5.32;;;2.47;;
33108;SDS011;19481;51.118;6.940;2023-04-25T01:16:14;3.92;;;2.40;;
33108;SDS011;19481;51.118;6.940;2023-04-25T01:21:17;3.65;;;2.20;;
33108;SDS011;19481;51.118;6.940;2023-04-25T01:26:19;6.72;;;2.22;;
33108;SDS011;19481;51.118;6.940;2023-04-25T01:31:22;6.78;;;2.40;;
33108;SDS011;19481;51.118;6.940;2023-04-25T01:36:25;6.80;;;2.33;;
33108;SDS011;19481;51.118;6.940;2023-04-25T01:41:27;4.88;;;2.22;;
33108;SDS011;19481;51.118;6.940;2023-04-25T01:46:29;4.05;;;2.10;;
33108;SDS011;19481;51.118;6.940;2023-04-25T01:51:32;7.00;;;2.33;;
33108;SDS011;19481;51.118;6.940;2023-04-25T01:56:36;6.20;;;2.30;;
33108;SDS011;19481;51.118;6.940;2023-04-25T02:01:38;16.23;;;2.50;;
33108;SDS011;19481;51.118;6.940;2023-04-25T02:06:40;17.67;;;2.83;;
33108;SDS011;19481;51.118;6.940;2023-04-25T02:11:42;4.00;;;2.30;;
33108;SDS011;19481;51.118;6.940;2023-04-25T02:16:44;4.20;;;2.50;;
33108;SDS011;19481;51.118;6.940;2023-04-25T02:21:47;10.45;;;2.88;;
33108;SDS011;19481;51.118;6.940;2023-04-25T02:26:49;4.55;;;2.40;;
33108;SDS011;19481;51.118;6.940;2023-04-25T02:31:50;5.80;;;2.50;;
33108;SDS011;19481;51.118;6.940;2023-04-25T02:36:53;6.15;;;2.05;;
33108;SDS011;19481;51.118;6.940;2023-04-25T02:41:55;6.93;;;2.85;;
33108;SDS011;19481;51.118;6.940;2023-04-25T02:46:57;8.68;;;2.17;;
33108;SDS011;19481;51.118;6.940;2023-04-25T02:52:00;8.23;;;2.72;;
33108;SDS011;19481;51.118;6.940;2023-04-25T02:57:01;7.45;;;2.17;;
33108;SDS011;19481;51.118;6.940;2023-04-25T03:02:03;7.32;;;2.08;;
33108;SDS011;19481;51.118;6.940;2023-04-25T03:07:06;8.43;;;2.17;;
33108;SDS011;19481;51.118;6.940;2023-04-25T03:12:07;4.07;;;2.25;;
33108;SDS011;19481;51.118;6.940;2023-04-25T03:17:09;5.68;;;1.98;;
33108;SDS011;19481;51.118;6.940;2023-04-25T03:22:12;2.30;;;1.65;;
33108;SDS011;19481;51.118;6.940;2023-04-25T03:27:14;4.35;;;1.55;;
33108;SDS011;19481;51.118;6.940;2023-04-25T03:32:15;9.27;;;2.45;;
33108;SDS011;19481;51.118;6.940;2023-04-25T03:37:18;5.07;;;1.95;;
33108;SDS011;19481;51.118;6.940;2023-04-25T03:42:20;4.22;;;1.90;;
33108;SDS011;19481;51.118;6.940;2023-04-25T03:47:22;8.63;;;2.05;;
33108;SDS011;19481;51.118;6.940;2023-04-25T03:52:25;12.98;;;2.15;;
33108;SDS011;19481;51.118;6.940;2023-04-25T03:57:27;4.53;;;2.30;;
33108;SDS011;19481;51.118;6.940;2023-04-25T04:02:29;8.10;;;2.65;;
33108;SDS011;19481;51.118;6.940;2023-04-25T04:07:32;5.75;;;2.47;;
33108;SDS011;19481;51.118;6.940;2023-04-25T04:12:36;6.07;;;2.38;;
33108;SDS011;19481;51.118;6.940;2023-04-25T04:17:38;2.47;;;1.88;;
33108;SDS011;19481;51.118;6.940;2023-04-25T04:22:41;11.43;;;2.10;;
33108;SDS011;19481;51.118;6.940;2023-04-25T04:27:43;7.60;;;1.65;;
33108;SDS011;19481;51.118;6.940;2023-04-25T04:32:46;9.90;;;3.03;;
33108;SDS011;19481;51.118;6.940;2023-04-25T04:37:50;9.13;;;2.80;;
33108;SDS011;19481;51.118;6.940;2023-04-25T04:42:51;3.53;;;1.88;;
33108;SDS011;19481;51.118;6.940;2023-04-25T04:47:56;8.38;;;2.50;;
33108;SDS011;19481;51.118;6.940;2023-04-25T04:52:59;6.55;;;2.75;;
33108;SDS011;19481;51.118;6.940;2023-04-25T04:58:02;5.03;;;2.03;;
33108;SDS011;19481;51.118;6.940;2023-04-25T05:03:04;9.65;;;2.65;;
33108;SDS011;19481;51.118;6.940;2023-04-25T05:08:07;10.95;;;2.13;;
33108;SDS011;19481;51.118;6.940;2023-04-25T05:13:09;14.25;;;2.55;;
33108;SDS011;19481;51.118;6.940;2023-04-25T05:18:10;8.05;;;2.47;;
33108;SDS011;19481;51.118;6.940;2023-04-25T05:23:13;7.25;;;2.20;;
33108;SDS011;19481;51.118;6.940;2023-04-25T05:28:15;7.32;;;2.30;;
33108;SDS011;19481;51.118;6.940;2023-04-25T05:33:17;12.02;;;2.53;;
33108;SDS011;19481;51.118;6.940;2023-04-25T05:38:20;7.05;;;2.30;;
33108;SDS011;19481;51.118;6.940;2023-04-25T05:43:21;9.93;;;3.03;;
33108;SDS011;19481;51.118;6.940;2023-04-25T05:48:23;6.35;;;2.28;;
33108;SDS011;19481;51.118;6.940;2023-04-25T05:53:26;12.55;;;2.65;;
33108;SDS011;19481;51.118;6.940;2023-04-25T05:58:27;7.13;;;2.03;;
33108;SDS011;19481;51.118;6.940;2023-04-25T06:03:30;10.13;;;2.55;;
33108;SDS011;19481;51.118;6.940;2023-04-25T06:08:33;10.38;;;2.53;;
33108;SDS011;19481;51.118;6.940;2023-04-25T06:13:34;13.50;;;2.47;;
33108;SDS011;19481;51.118;6.940;2023-04-25T06:18:36;5.97;;;1.83;;
33108;SDS011;19481;51.118;6.940;2023-04-25T06:23:39;7.65;;;2.63;;
33108;SDS011;19481;51.118;6.940;2023-04-25T06:28:40;6.93;;;2.58;;
33108;SDS011;19481;51.118;6.940;2023-04-25T06:33:42;3.75;;;1.75;;
33108;SDS011;19481;51.118;6.940;2023-04-25T06:38:45;4.22;;;2.33;;
33108;SDS011;19481;51.118;6.940;2023-04-25T06:43:46;7.53;;;2.13;;
33108;SDS011;19481;51.118;6.940;2023-04-25T06:48:48;9.80;;;2.55;;
33108;SDS011;19481;51.118;6.940;2023-04-25T06:53:51;8.70;;;2.30;;
33108;SDS011;19481;51.118;6.940;2023-04-25T06:58:53;11.95;;;3.00;;
33108;SDS011;19481;51.118;6.940;2023-04-25T07:03:54;9.52;;;3.05;;
33108;SDS011;19481;51.118;6.940;2023-04-25T07:08:57;8.00;;;2.03;;
33108;SDS011;19481;51.118;6.940;2023-04-25T07:13:59;9.55;;;2.55;;
33108;SDS011;19481;51.118;6.940;2023-04-25T07:19:00;5.30;;;2.63;;
33108;SDS011;19481;51.118;6.940;2023-04-25T07:24:04;13.38;;;2.72;;
33108;SDS011;19481;51.118;6.940;2023-04-25T07:29:08;9.07;;;2.53;;
33108;SDS011;19481;51.118;6.940;2023-04-25T07:34:10;5.55;;;2.20;;
33108;SDS011;19481;51.118;6.940;2023-04-25T07:39:13;9.07;;;2.70;;
33108;SDS011;19481;51.118;6.940;2023-04-25T07:44:14;3.40;;;2.20;;
33108;SDS011;19481;51.118;6.940;2023-04-25T07:49:16;4.55;;;2.15;;
33108;SDS011;19481;51.118;6.940;2023-04-25T07:54:19;9.23;;;2.38;;
33108;SDS011;19481;51.118;6.940;2023-04-25T07:59:20;15.68;;;2.30;;
33108;SDS011;19481;51.118;6.940;2023-04-25T08:04:22;4.60;;;1.70;;
33108;SDS011;19481;51.118;6.940;2023-04-25T08:09:26;6.22;;;2.05;;
33108;SDS011;19481;51.118;6.940;2023-04-25T08:14:28;6.20;;;2.38;;
33108;SDS011;19481;51.118;6.940;2023-04-25T08:19:36;5.18;;;2.78;;
33108;SDS011;19481;51.118;6.940;2023-04-25T08:24:39;8.85;;;2.72;;
33108;SDS011;19481;51.118;6.940;2023-04-25T08:29:41;7.20;;;2.78;;
33108;SDS011;19481;51.118;6.940;2023-04-25T08:34:43;4.25;;;1.88;;
33108;SDS011;19481;51.118;6.940;2023-04-25T08:39:46;7.80;;;1.83;;
33108;SDS011;19481;51.118;6.940;2023-04-25T08:44:48;5.82;;;1.77;;
33108;SDS011;19481;51.118;6.940;2023-04-25T08:49:49;4.13;;;1.35;;
33108;SDS011;19481;51.118;6.940;2023-04-25T08:54:56;8.00;;;2.03;;
33108;SDS011;19481;51.118;6.940;2023-04-25T08:59:58;5.13;;;1.70;;
33108;SDS011;19481;51.118;6.940;2023-04-25T09:05:03;4.03;;;1.63;;
33108;SDS011;19481;51.118;6.940;2023-04-25T09:10:07;4.80;;;1.85;;
33108;SDS011;19481;51.118;6.940;2023-04-25T09:15:09;6.32;;;2.00;;
33108;SDS011;19481;51.118;6.940;2023-04-25T09:20:13;3.72;;;1.48;;
33108;SDS011;19481;51.118;6.940;2023-04-25T09:25:17;2.60;;;1.27;;
33108;SDS011;19481;51.118;6.940;2023-04-25T09:30:18;3.28;;;1.33;;
33108;SDS011;19481;51.118;6.940;2023-04-25T09:35:30;4.68;;;1.67;;
33108;SDS011;19481;51.118;6.940;2023-04-25T09:40:42;2.13;;;1.30;;
33108;SDS011;19481;51.118;6.940;2023-04-25T09:45:44;7.65;;;1.60;;
33108;SDS011;19481;51.118;6.940;2023-04-25T09:50:51;2.90;;;1.48;;
33108;SDS011;19481;51.118;6.940;2023-04-25T09:56:07;4.47;;;1.35;;
33108;SDS011;19481;51.118;6.940;2023-04-25T10:01:10;5.25;;;1.42;;
33108;SDS011;19481;51.118;6.940;2023-04-25T10:06:13;4.45;;;1.40;;
33108;SDS011;19481;51.118;6.940;2023-04-25T10:11:20;11.05;;;2.03;;
33108;SDS011;19481;51.118;6.940;2023-04-25T10:16:24;5.25;;;1.20;;
33108;SDS011;19481;51.118;6.940;2023-04-25T10:21:26;4.57;;;1.40;;
33108;SDS011;19481;51.118;6.940;2023-04-25T10:26:34;3.30;;;1.25;;
33108;SDS011;19481;51.118;6.940;2023-04-25T10:31:44;2.83;;;1.45;;
33108;SDS011;19481;51.118;6.940;2023-04-25T10:36:50;1.05;;;0.93;;
33108;SDS011;19481;51.118;6.940;2023-04-25T10:41:55;4.93;;;1.25;;
33108;SDS011;19481;51.118;6.940;2023-04-25T10:46:58;5.53;;;1.30;;
33108;SDS011;19481;51.118;6.940;2023-04-25T10:52:11;1.83;;;1.40;;
33108;SDS011;19481;51.118;6.940;2023-04-25T10:57:30;1.95;;;1.50;;
33108;SDS011;19481;51.118;6.940;2023-04-25T11:02:36;3.53;;;0.98;;
33108;SDS011;19481;51.118;6.940;2023-04-25T11:07:40;5.32;;;1.10;;
33108;SDS011;19481;51.118;6.940;2023-04-25T11:12:51;1.38;;;1.13;;
33108;SDS011;19481;51.118;6.940;2023-04-25T11:17:53;3.22;;;1.30;;
33108;SDS011;19481;51.118;6.940;2023-04-25T11:22:56;3.83;;;1.30;;
33108;SDS011;19481;51.118;6.940;2023-04-25T11:28:00;2.58;;;1.23;;
33108;SDS011;19481;51.118;6.940;2023-04-25T11:33:03;3.17;;;1.15;;
33108;SDS011;19481;51.118;6.940;2023-04-25T11:38:04;1.25;;;1.10;;
33108;SDS011;19481;51.118;6.940;2023-04-25T11:43:07;5.85;;;1.00;;
33108;SDS011;19481;51.118;6.940;2023-04-25T11:48:10;1.20;;;0.80;;
33108;SDS011;19481;51.118;6.940;2023-04-25T11:53:12;3.20;;;1.13;;
33108;SDS011;19481;51.118;6.940;2023-04-25T11:58:15;1.80;;;0.82;;
33108;SDS011;19481;51.118;6.940;2023-04-25T12:03:17;2.33;;;1.13;;
33108;SDS011;19481;51.118;6.940;2023-04-25T12:08:19;1.92;;;1.00;;
33108;SDS011;19481;51.118;6.940;2023-04-25T12:13:22;2.65;;;1.30;;
33108;SDS011;19481;51.118;6.940;2023-04-25T12:18:25;1.98;;;1.15;;
33108;SDS011;19481;51.118;6.940;2023-04-25T12:23:27;2.05;;;0.93;;
33108;SDS011;19481;51.118;6.940;2023-04-25T12:28:31;4.32;;;1.05;;
33108;SDS011;19481;51.118;6.940;2023-04-25T12:33:33;2.45;;;1.27;;
33108;SDS011;19481;51.118;6.940;2023-04-25T12:38:37;5.57;;;1.38;;
33108;SDS011;19481;51.118;6.940;2023-04-25T12:43:41;2.80;;;1.00;;
33108;SDS011;19481;51.118;6.940;2023-04-25T12:48:43;1.52;;;0.93;;
33108;SDS011;19481;51.118;6.940;2023-04-25T12:53:44;3.90;;;1.13;;
33108;SDS011;19481;51.118;6.940;2023-04-25T12:58:47;2.50;;;1.38;;
33108;SDS011;19481;51.118;6.940;2023-04-25T13:03:49;2.45;;;1.48;;
33108;SDS011;19481;51.118;6.940;2023-04-25T13:08:51;2.92;;;1.40;;
33108;SDS011;19481;51.118;6.940;2023-04-25T13:13:54;5.13;;;1.77;;
33108;SDS011;19481;51.118;6.940;2023-04-25T13:18:56;8.38;;;1.65;;
33108;SDS011;19481;51.118;6.940;2023-04-25T13:23:59;4.18;;;1.60;;
33108;SDS011;19481;51.118;6.940;2023-04-25T13:29:02;3.83;;;1.60;;
33108;SDS011;19481;51.118;6.940;2023-04-25T13:34:04;5.85;;;1.75;;
33108;SDS011;19481;51.118;6.940;2023-04-25T13:39:05;4.35;;;1.67;;
33108;SDS011;19481;51.118;6.940;2023-04-25T13:44:08;4.68;;;1.50;;
33108;SDS011;19481;51.118;6.940;2023-04-25T13:49:11;7.85;;;1.80;;
33108;SDS011;19481;51.118;6.940;2023-04-25T13:54:12;3.63;;;1.20;;
33108;SDS011;19481;51.118;6.940;2023-04-25T13:59:15;1.48;;;1.25;;
33108;SDS011;19481;51.118;6.940;2023-04-25T14:04:17;2.42;;;1.20;;
33108;SDS011;19481;51.118;6.940;2023-04-25T14:09:19;1.83;;;1.08;;
33108;SDS011;19481;51.118;6.940;2023-04-25T14:14:26;2.85;;;1.13;;
33108;SDS011;19481;51.118;6.940;2023-04-25T14:19:28;1.42;;;0.80;;
33108;SDS011;19481;51.118;6.940;2023-04-25T14:24:30;3.33;;;1.27;;
33108;SDS011;19481;51.118;6.940;2023-04-25T14:29:33;3.40;;;0.90;;
33108;SDS011;19481;51.118;6.940;2023-04-25T14:34:35;3.78;;;0.90;;
33108;SDS011;19481;51.118;6.940;2023-04-25T14:39:37;1.70;;;0.90;;
33108;SDS011;19481;51.118;6.940;2023-04-25T14:44:40;3.60;;;1.08;;
33108;SDS011;19481;51.118;6.940;2023-04-25T14:49:41;1.75;;;1.10;;
33108;SDS011;19481;51.118;6.940;2023-04-25T14:54:43;3.08;;;0.90;;
33108;SDS011;19481;51.118;6.940;2023-04-25T14:59:46;2.70;;;1.23;;
33108;SDS011;19481;51.118;6.940;2023-04-25T15:04:48;3.35;;;1.20;;
33108;SDS011;19481;51.118;6.940;2023-04-25T15:09:49;2.88;;;1.08;;
33108;SDS011;19481;51.118;6.940;2023-04-25T15:14:54;1.17;;;1.08;;
33108;SDS011;19481;51.118;6.940;2023-04-25T15:19:56;1.60;;;1.10;;
33108;SDS011;19481;51.118;6.940;2023-04-25T15:24:57;2.95;;;1.20;;
33108;SDS011;19481;51.118;6.940;2023-04-25T15:30:00;1.35;;;1.20;;
33108;SDS011;19481;51.118;6.940;2023-04-25T15:35:03;2.80;;;1.50;;
33108;SDS011;19481;51.118;6.940;2023-04-25T15:40:07;5.47;;;1.48;;
33108;SDS011;19481;51.118;6.940;2023-04-25T15:45:11;3.05;;;1.70;;
33108;SDS011;19481;51.118;6.940;2023-04-25T15:50:16;2.50;;;1.23;;
33108;SDS011;19481;51.118;6.940;2023-04-25T15:55:18;6.45;;;2.90;;
33108;SDS011;19481;51.118;6.940;2023-04-25T16:00:22;1.90;;;1.00;;
33108;SDS011;19481;51.118;6.940;2023-04-25T16:05:24;3.85;;;1.15;;
33108;SDS011;19481;51.118;6.940;2023-04-25T16:10:26;3.88;;;1.20;;
33108;SDS011;19481;51.118;6.940;2023-04-25T16:15:29;1.50;;;1.05;;
33108;SDS011;19481;51.118;6.940;2023-04-25T16:20:31;2.53;;;1.10;;
33108;SDS011;19481;51.118;6.940;2023-04-25T16:25:33;2.28;;;1.30;;
33108;SDS011;19481;51.118;6.940;2023-04-25T16:30:36;2.55;;;0.90;;
33108;SDS011;19481;51.118;6.940;2023-04-25T16:35:37;9.13;;;1.10;;
33108;SDS011;19481;51.118;6.940;2023-04-25T16:40:39;1.00;;;0.95;;
33108;SDS011;19481;51.118;6.940;2023-04-25T16:45:42;2.30;;;1.33;;
33108;SDS011;19481;51.118;6.940;2023-04-25T16:50:44;1.42;;;1.10;;
33108;SDS011;19481;51.118;6.940;2023-04-25T16:55:45;4.10;;;1.63;;
33108;SDS011;19481;51.118;6.940;2023-04-25T17:00:48;2.53;;;1.20;;
33108;SDS011;19481;51.118;6.940;2023-04-25T17:05:52;1.25;;;0.80;;
33108;SDS011;19481;51.118;6.940;2023-04-25T17:10:55;5.53;;;1.30;;
33108;SDS011;19481;51.118;6.940;2023-04-25T17:16:00;3.58;;;1.13;;
33108;SDS011;19481;51.118;6.940;2023-04-25T17:21:02;2.17;;;0.88;;
33108;SDS011;19481;51.118;6.940;2023-04-25T17:26:05;1.10;;;1.05;;
33108;SDS011;19481;51.118;6.940;2023-04-25T17:31:08;3.85;;;1.08;;
33108;SDS011;19481;51.118;6.940;2023-04-25T17:36:09;2.88;;;1.40;;
33108;SDS011;19481;51.118;6.940;2023-04-25T17:41:11;1.58;;;1.20;;
33108;SDS011;19481;51.118;6.940;2023-04-25T17:46:15;5.40;;;1.30;;
33108;SDS011;19481;51.118;6.940;2023-04-25T17:51:16;1.88;;;0.95;;
33108;SDS011;19481;51.118;6.940;2023-04-25T17:56:18;5.07;;;1.13;;
33108;SDS011;19481;51.118;6.940;2023-04-25T18:01:21;3.13;;;1.05;;
33108;SDS011;19481;51.118;6.940;2023-04-25T18:06:23;2.17;;;1.15;;
33108;SDS011;19481;51.118;6.940;2023-04-25T18:11:27;2.92;;;1.00;;
33108;SDS011;19481;51.118;6.940;2023-04-25T18:16:30;2.55;;;1.20;;
33108;SDS011;19481;51.118;6.940;2023-04-25T18:21:32;3.63;;;1.33;;
33108;SDS011;19481;51.118;6.940;2023-04-25T18:26:33;2.88;;;1.55;;
33108;SDS011;19481;51.118;6.940;2023-04-25T18:31:36;2.65;;;1.20;;
33108;SDS011;19481;51.118;6.940;2023-04-25T18:36:38;6.18;;;1.60;;
33108;SDS011;19481;51.118;6.940;2023-04-25T18:41:40;3.80;;;1.35;;
33108;SDS011;19481;51.118;6.940;2023-04-25T18:46:43;5.57;;;1.40;;
33108;SDS011;19481;51.118;6.940;2023-04-25T18:51:46;3.33;;;1.50;;
33108;SDS011;19481;51.118;6.940;2023-04-25T18:56:48;2.33;;;1.50;;
33108;SDS011;19481;51.118;6.940;2023-04-25T19:01:51;1.15;;;1.10;;
33108;SDS011;19481;51.118;6.940;2023-04-25T19:06:53;1.40;;;1.30;;
33108;SDS011;19481;51.118;6.940;2023-04-25T19:11:55;4.03;;;1.20;;
33108;SDS011;19481;51.118;6.940;2023-04-25T19:16:58;2.92;;;0.98;;
33108;SDS011;19481;51.118;6.940;2023-04-25T19:22:00;3.63;;;1.02;;
33108;SDS011;19481;51.118;6.940;2023-04-25T19:27:02;6.65;;;1.25;;
33108;SDS011;19481;51.118;6.940;2023-04-25T19:32:05;3.17;;;1.20;;
33108;SDS011;19481;51.118;6.940;2023-04-25T19:37:07;1.33;;;0.93;;
33108;SDS011;19481;51.118;6.940;2023-04-25T19:42:09;5.32;;;1.33;;
33108;SDS011;19481;51.118;6.940;2023-04-25T19:47:12;2.70;;;1.10;;
33108;SDS011;19481;51.118;6.940;2023-04-25T19:52:14;3.65;;;1.40;;
33108;SDS011;19481;51.118;6.940;2023-04-25T19:57:16;3.75;;;1.15;;
33108;SDS011;19481;51.118;6.940;2023-04-25T20:02:19;2.13;;;1.00;;
33108;SDS011;19481;51.118;6.940;2023-04-25T20:07:21;3.92;;;1.08;;
33108;SDS011;19481;51.118;6.940;2023-04-25T20:12:23;4.82;;;1.10;;
33108;SDS011;19481;51.118;6.940;2023-04-25T20:17:26;2.80;;;0.93;;
33108;SDS011;19481;51.118;6.940;2023-04-25T20:22:28;2.50;;;1.30;;
33108;SDS011;19481;51.118;6.940;2023-04-25T20:27:35;3.60;;;1.35;;
33108;SDS011;19481;51.118;6.940;2023-04-25T20:32:39;6.30;;;1.13;;
33108;SDS011;19481;51.118;6.940;2023-04-25T20:37:41;5.53;;;1.48;;
33108;SDS011;19481;51.118;6.940;2023-04-25T20:42:42;2.08;;;1.02;;
33108;SDS011;19481;51.118;6.940;2023-04-25T20:47:46;2.65;;;1.25;;
33108;SDS011;19481;51.118;6.940;2023-04-25T20:52:48;3.58;;;1.50;;
33108;SDS011;19481;51.118;6.940;2023-04-25T20:57:50;9.35;;;1.70;;
33108;SDS011;19481;51.118;6.940;2023-04-25T21:02:53;6.82;;;1.45;;
33108;SDS011;19481;51.118;6.940;2023-04-25T21:07:55;2.03;;;1.20;;
33108;SDS011;19481;51.118;6.940;2023-04-25T21:12:57;5.45;;;1.45;;
33108;SDS011;19481;51.118;6.940;2023-04-25T21:18:01;5.68;;;1.55;;
33108;SDS011;19481;51.118;6.940;2023-04-25T21:23:02;2.00;;;1.40;;
33108;SDS011;19481;51.118;6.940;2023-04-25T21:28:04;3.97;;;1.48;;
33108;SDS011;19481;51.118;6.940;2023-04-25T21:33:08;3.90;;;1.70;;
33108;SDS011;19481;51.118;6.940;2023-04-25T21:38:10;4.57;;;1.38;;
33108;SDS011;19481;51.118;6.940;2023-04-25T21:43:13;5.63;;;1.55;;
33108;SDS011;19481;51.118;6.940;2023-04-25T21:48:16;2.25;;;1.25;;
33108;SDS011;19481;51.118;6.940;2023-04-25T21:53:18;1.33;;;1.25;;
33108;SDS011;19481;51.118;6.940;2023-04-25T21:58:19;1.67;;;1.10;;
33108;SDS011;19481;51.118;6.940;2023-04-25T22:03:22;5.75;;;1.50;;
33108;SDS011;19481;51.118;6.940;2023-04-25T22:08:24;4.90;;;1.63;;
33108;SDS011;19481;51.118;6.940;2023-04-25T22:13:26;4.93;;;1.58;;
33108;SDS011;19481;51.118;6.940;2023-04-25T22:18:29;2.55;;;1.70;;
33108;SDS011;19481;51.118;6.940;2023-04-25T22:23:30;1.80;;;1.23;;
33108;SDS011;19481;51.118;6.940;2023-04-25T22:28:32;2.75;;;1.50;;
33108;SDS011;19481;51.118;6.940;2023-04-25T22:33:35;3.75;;;1.50;;
33108;SDS011;19481;51.118;6.940;2023-04-25T22:38:37;4.57;;;1.30;;
33108;SDS011;19481;51.118;6.940;2023-04-25T22:43:40;3.75;;;1.50;;
33108;SDS011;19481;51.118;6.940;2023-04-25T22:48:43;0.90;;;0.90;;
33108;SDS011;19481;51.118;6.940;2023-04-25T22:53:45;2.15;;;1.42;;
33108;SDS011;19481;51.118;6.940;2023-04-25T22:58:46;1.30;;;1.15;;
33108;SDS011;19481;51.118;6.940;2023-04-25T23:03:49;1.45;;;1.35;;
33108;SDS011;19481;51.118;6.940;2023-04-25T23:08:51;1.48;;;1.13;;
33108;SDS011;19481;51.118;6.940;2023-04-25T23:13:53;1.45;;;1.25;;
33108;SDS011;19481;51.118;6.940;2023-04-25T23:18:56;3.15;;;1.25;;
33108;SDS011;19481;51.118;6.940;2023-04-25T23:23:58;1.88;;;1.50;;
33108;SDS011;19481;51.118;6.940;2023-04-25T23:29:00;1.48;;;1.05;;
33108;SDS011;19481;51.118;6.940;2023-04-25T23:34:03;2.88;;;1.15;;
33108;SDS011;19481;51.118;6.940;2023-04-25T23:39:04;2.85;;;1.50;;
33108;SDS011;19481;51.118;6.940;2023-04-25T23:44:09;2.65;;;1.58;;
33108;SDS011;19481;51.118;6.940;2023-04-25T23:49:12;2.45;;;1.40;;
33108;SDS011;19481;51.118;6.940;2023-04-25T23:54:14;2.83;;;1.48;;
33108;SDS011;19481;51.118;6.940;2023-04-25T23:59:15;1.73;;;1.45;;
